Time;durP1;ratioP1;P1;durP2;ratioP2;P2;SDS_P1;SDS_P2;PMS_P1;PMS_P2;Temp;Humidity;BMP_temperature;BMP_pressure;BME280_temperature;BME280_humidity;BME280_pressure;Samples;Min_cycle;Max_cycle;Signal;HPM_P1;HPM_P2
2023/12/14 00:01:13;;;;;;;;;;;5.70;99.90;;;;;;5109730;27;19982;-64
2023/12/14 00:03:40;;;;;;;;;;;5.70;99.90;;;;;;5119759;27;19941;-66
2023/12/14 00:06:09;;;;;;;;;;;5.70;99.90;;;;;;5107057;27;19919;-64
2023/12/14 00:08:35;;;;;;;;;;;5.70;99.90;;;;;;5113440;27;19915;-64
2023/12/14 00:11:07;;;;;;;;;;;5.70;99.90;;;;;;5106258;27;20301;-65
2023/12/14 00:13:33;;;;;;;;;;;5.70;99.90;;;;;;5115814;27;19915;-64
2023/12/14 00:15:59;;;;;;;;;;;5.70;99.90;;;;;;5115092;27;19926;-64
2023/12/14 00:18:25;;;;;;;;;;;5.80;99.90;;;;;;5124927;27;20309;-64
2023/12/14 00:20:50;;;;;;;;;;;5.70;99.90;;;;;;5124254;27;20009;-64
2023/12/14 00:23:16;;;;;;;;;;;5.70;99.90;;;;;;5127016;27;19923;-64
2023/12/14 00:25:41;;;;;;;;;;;5.70;99.90;;;;;;5127121;27;19922;-64
2023/12/14 00:28:07;;;;;;;;;;;5.70;99.90;;;;;;5124156;27;20009;-64
2023/12/14 00:30:32;;;;;;;;;;;5.70;99.90;;;;;;5129735;27;19923;-64
2023/12/14 00:32:58;;;;;;;;;;;5.70;99.90;;;;;;5120943;27;19985;-64
2023/12/14 00:35:23;;;;;;;;;;;5.70;99.90;;;;;;5126912;27;19973;-64
2023/12/14 00:37:49;;;;;;;;;;;5.70;99.90;;;;;;5130409;27;20003;-65
2023/12/14 00:40:14;;;;;;;;;;;5.70;99.90;;;;;;5131038;27;19938;-64
2023/12/14 00:42:40;;;;;;;;;;;5.70;99.90;;;;;;5124870;27;19920;-64
2023/12/14 00:45:06;;;;;;;;;;;5.70;99.90;;;;;;5126857;27;20449;-64
2023/12/14 00:47:31;;;;;;;;;;;5.70;99.90;;;;;;5121493;27;19938;-64
2023/12/14 00:49:57;;;;;;;;;;;5.70;99.90;;;;;;5110253;27;20002;-64
2023/12/14 00:52:22;;;;;;;;;;;5.70;99.90;;;;;;5108545;27;19923;-64
2023/12/14 00:54:48;;;;;;;;;;;5.70;99.90;;;;;;5106971;27;19968;-64
2023/12/14 00:57:13;;;;;;;;;;;5.70;99.90;;;;;;5109824;27;20022;-64
2023/12/14 00:59:40;;;;;;;;;;;5.70;99.90;;;;;;5092038;28;20428;-64
2023/12/14 01:02:06;;;;;;;;;;;5.70;99.90;;;;;;5093033;28;19916;-64
2023/12/14 01:04:31;;;;;;;;;;;5.70;99.90;;;;;;5111918;28;19964;-64
2023/12/14 01:06:57;;;;;;;;;;;5.70;99.90;;;;;;5115012;27;19923;-64
2023/12/14 01:09:22;;;;;;;;;;;5.70;99.90;;;;;;5114818;27;19985;-64
2023/12/14 01:11:48;;;;;;;;;;;5.70;99.90;;;;;;5104814;27;19938;-64
2023/12/14 01:14:13;;;;;;;;;;;5.70;99.90;;;;;;5112971;27;19915;-64
2023/12/14 01:16:39;;;;;;;;;;;5.70;99.90;;;;;;5115030;27;19960;-64
2023/12/14 01:19:05;;;;;;;;;;;5.70;99.90;;;;;;5115773;28;19919;-64
2023/12/14 01:21:31;;;;;;;;;;;5.70;99.90;;;;;;5113085;28;19923;-64
2023/12/14 01:23:57;;;;;;;;;;;5.70;99.90;;;;;;5114713;28;19916;-64
2023/12/14 01:26:22;;;;;;;;;;;5.70;99.90;;;;;;5112209;28;20259;-64
2023/12/14 01:28:48;;;;;;;;;;;5.60;99.90;;;;;;5111755;28;19915;-64
2023/12/14 01:31:13;;;;;;;;;;;5.70;99.90;;;;;;5112372;28;19973;-64
2023/12/14 01:33:39;;;;;;;;;;;5.70;99.90;;;;;;5111800;28;19969;-64
2023/12/14 01:36:04;;;;;;;;;;;5.70;99.90;;;;;;5111829;28;19956;-64
2023/12/14 01:38:30;;;;;;;;;;;5.70;99.90;;;;;;5114475;28;19926;-64
2023/12/14 01:40:56;;;;;;;;;;;5.60;99.90;;;;;;5113187;28;19915;-64
2023/12/14 01:43:21;;;;;;;;;;;5.60;99.90;;;;;;5113720;28;19931;-64
2023/12/14 01:45:47;;;;;;;;;;;5.60;99.90;;;;;;5123770;28;20397;-64
2023/12/14 01:48:12;;;;;;;;;;;5.60;99.90;;;;;;5114265;28;19923;-64
2023/12/14 01:50:38;;;;;;;;;;;5.60;99.90;;;;;;5116041;28;19915;-64
2023/12/14 01:53:03;;;;;;;;;;;5.60;99.90;;;;;;5111327;28;19919;-64
2023/12/14 01:55:29;;;;;;;;;;;5.60;99.90;;;;;;5116684;28;20393;-64
2023/12/14 01:57:54;;;;;;;;;;;5.60;99.90;;;;;;5113445;28;19938;-64
2023/12/14 02:00:30;;;;;;;;;;;5.60;99.90;;;;;;5116210;27;19950;-64
2023/12/14 02:02:55;;;;;;;;;;;5.60;99.90;;;;;;5113615;27;19947;-64
2023/12/14 02:05:21;;;;;;;;;;;5.60;99.90;;;;;;5114517;27;19955;-65
2023/12/14 02:07:46;;;;;;;;;;;5.60;99.90;;;;;;5113941;27;20227;-64
2023/12/14 02:10:12;;;;;;;;;;;5.60;99.90;;;;;;5115014;27;19963;-64
2023/12/14 02:12:37;;;;;;;;;;;5.60;99.90;;;;;;5111643;27;19922;-64
2023/12/14 02:15:03;;;;;;;;;;;5.60;99.90;;;;;;5115974;27;20425;-64
2023/12/14 02:17:29;;;;;;;;;;;5.60;99.90;;;;;;5117199;27;20285;-65
2023/12/14 02:19:54;;;;;;;;;;;5.60;99.90;;;;;;5116326;27;19922;-64
2023/12/14 02:22:20;;;;;;;;;;;5.50;99.90;;;;;;5116038;27;20112;-64
2023/12/14 02:24:45;;;;;;;;;;;5.50;99.90;;;;;;5117206;27;19924;-64
2023/12/14 02:27:11;;;;;;;;;;;5.50;99.90;;;;;;5117549;27;20389;-64
2023/12/14 02:29:36;;;;;;;;;;;5.50;99.90;;;;;;5116330;27;19920;-64
2023/12/14 02:32:02;;;;;;;;;;;5.50;99.90;;;;;;5118865;27;20574;-63
2023/12/14 02:34:27;;;;;;;;;;;5.50;99.90;;;;;;5124288;27;19976;-64
2023/12/14 02:36:53;;;;;;;;;;;5.50;99.90;;;;;;5112711;27;20889;-64
2023/12/14 02:39:18;;;;;;;;;;;5.50;99.90;;;;;;5113084;27;19955;-64
2023/12/14 02:41:44;;;;;;;;;;;5.40;99.90;;;;;;5114249;27;19920;-64
2023/12/14 02:44:09;;;;;;;;;;;5.40;99.90;;;;;;5114093;27;19964;-64
2023/12/14 02:46:35;;;;;;;;;;;5.40;99.90;;;;;;5115389;27;20026;-64
2023/12/14 02:49:00;;;;;;;;;;;5.40;99.90;;;;;;5116196;27;19915;-64
2023/12/14 02:51:26;;;;;;;;;;;5.40;99.90;;;;;;5117958;27;19949;-64
2023/12/14 02:53:51;;;;;;;;;;;5.40;99.90;;;;;;5113631;27;19916;-64
2023/12/14 02:56:17;;;;;;;;;;;5.40;99.90;;;;;;5114900;27;20339;-64
2023/12/14 02:58:42;;;;;;;;;;;5.40;99.90;;;;;;5115602;27;19922;-64
2023/12/14 03:01:08;;;;;;;;;;;5.40;99.90;;;;;;5111308;27;20377;-65
2023/12/14 03:03:33;;;;;;;;;;;5.40;99.90;;;;;;5116119;27;19915;-64
2023/12/14 03:05:59;;;;;;;;;;;5.40;99.90;;;;;;5113972;27;19915;-64
2023/12/14 03:08:24;;;;;;;;;;;5.40;99.90;;;;;;5118936;27;20204;-64
2023/12/14 03:10:50;;;;;;;;;;;5.40;99.90;;;;;;5115415;27;19984;-64
2023/12/14 03:13:15;;;;;;;;;;;5.40;99.90;;;;;;5110921;27;19915;-64
2023/12/14 03:15:42;;;;;;;;;;;5.30;99.90;;;;;;5111129;27;19922;-64
2023/12/14 03:18:07;;;;;;;;;;;5.40;99.90;;;;;;5113268;27;19919;-64
2023/12/14 03:20:33;;;;;;;;;;;5.40;99.90;;;;;;5114461;27;20011;-64
2023/12/14 03:22:58;;;;;;;;;;;5.40;99.90;;;;;;5109860;27;20424;-64
2023/12/14 03:25:24;;;;;;;;;;;5.40;99.90;;;;;;5115923;27;19920;-64
2023/12/14 03:27:49;;;;;;;;;;;5.40;99.90;;;;;;5117925;27;19915;-63
2023/12/14 03:30:15;;;;;;;;;;;5.30;99.90;;;;;;5116718;27;20067;-64
2023/12/14 03:32:41;;;;;;;;;;;5.30;99.90;;;;;;5111029;27;19922;-64
2023/12/14 03:35:08;;;;;;;;;;;5.40;99.90;;;;;;5115355;27;19916;-64
2023/12/14 03:37:33;;;;;;;;;;;5.30;99.90;;;;;;5117805;27;19926;-64
2023/12/14 03:39:59;;;;;;;;;;;5.30;99.90;;;;;;5117047;27;19916;-63
2023/12/14 03:42:24;;;;;;;;;;;5.30;99.90;;;;;;5117076;27;19954;-63
2023/12/14 03:44:50;;;;;;;;;;;5.30;99.90;;;;;;5117264;27;19924;-64
2023/12/14 03:47:15;;;;;;;;;;;5.30;99.90;;;;;;5117044;27;19915;-64
2023/12/14 03:49:41;;;;;;;;;;;5.30;99.90;;;;;;5111481;27;19915;-64
2023/12/14 03:52:08;;;;;;;;;;;5.30;99.90;;;;;;5112561;27;20007;-64
2023/12/14 03:54:33;;;;;;;;;;;5.30;99.90;;;;;;5113611;27;19919;-64
2023/12/14 03:56:59;;;;;;;;;;;5.30;99.90;;;;;;5113729;27;20465;-64
2023/12/14 03:59:24;;;;;;;;;;;5.30;99.90;;;;;;5114524;27;20006;-65
2023/12/14 04:01:50;;;;;;;;;;;5.30;99.90;;;;;;5114214;27;19919;-64
2023/12/14 04:04:15;;;;;;;;;;;5.30;99.90;;;;;;5114091;27;20305;-64
2023/12/14 04:06:41;;;;;;;;;;;5.30;99.90;;;;;;5112675;27;19915;-64
2023/12/14 04:09:06;;;;;;;;;;;5.30;99.90;;;;;;5128270;27;19970;-64
2023/12/14 04:11:31;;;;;;;;;;;5.30;99.90;;;;;;5121099;27;20000;-64
2023/12/14 04:13:57;;;;;;;;;;;5.30;99.90;;;;;;5112964;27;19964;-64
2023/12/14 04:16:22;;;;;;;;;;;5.30;99.90;;;;;;5126147;27;19923;-66
2023/12/14 04:18:48;;;;;;;;;;;5.30;99.90;;;;;;5095821;27;20156;-65
2023/12/14 04:21:14;;;;;;;;;;;5.30;99.90;;;;;;5127284;27;20293;-65
2023/12/14 04:23:39;;;;;;;;;;;5.30;99.90;;;;;;5121158;27;20011;-65
2023/12/14 04:26:05;;;;;;;;;;;5.30;99.90;;;;;;5122404;27;19958;-65
2023/12/14 04:28:30;;;;;;;;;;;5.30;99.90;;;;;;5114967;27;19964;-65
2023/12/14 04:30:56;;;;;;;;;;;5.30;99.90;;;;;;5121310;27;19938;-65
2023/12/14 04:33:21;;;;;;;;;;;5.30;99.90;;;;;;5119861;27;19922;-65
2023/12/14 04:35:47;;;;;;;;;;;5.30;99.90;;;;;;5111401;27;19919;-65
2023/12/14 04:38:12;;;;;;;;;;;5.30;99.90;;;;;;5112372;27;20447;-65
2023/12/14 04:40:38;;;;;;;;;;;5.20;99.90;;;;;;5127179;27;19919;-66
2023/12/14 04:43:03;;;;;;;;;;;5.30;99.90;;;;;;5121213;27;20439;-65
2023/12/14 04:45:29;;;;;;;;;;;5.30;99.90;;;;;;5122803;27;19923;-66
2023/12/14 04:47:54;;;;;;;;;;;5.30;99.90;;;;;;5121274;27;19923;-63
2023/12/14 04:50:20;;;;;;;;;;;5.30;99.90;;;;;;5128572;27;19960;-63
2023/12/14 04:52:46;;;;;;;;;;;5.30;99.90;;;;;;5127589;27;19915;-63
2023/12/14 04:55:11;;;;;;;;;;;5.30;99.90;;;;;;5128004;27;19998;-64
2023/12/14 04:57:37;;;;;;;;;;;5.30;99.90;;;;;;5121972;27;19927;-63
2023/12/14 05:00:04;;;;;;;;;;;5.20;99.90;;;;;;5130991;27;19915;-63
2023/12/14 05:02:31;;;;;;;;;;;5.20;99.90;;;;;;5128786;27;19930;-64
2023/12/14 05:04:57;;;;;;;;;;;5.20;99.90;;;;;;5128154;27;19922;-64
2023/12/14 05:07:23;;;;;;;;;;;5.20;99.90;;;;;;5128449;27;19916;-64
2023/12/14 05:09:49;;;;;;;;;;;5.20;99.90;;;;;;5115409;27;19915;-63
2023/12/14 05:12:14;;;;;;;;;;;5.20;99.90;;;;;;5120728;27;20408;-64
2023/12/14 05:14:40;;;;;;;;;;;5.20;99.90;;;;;;5118003;27;20461;-64
2023/12/14 05:17:05;;;;;;;;;;;5.20;99.90;;;;;;5128690;27;19919;-64
2023/12/14 05:19:34;;;;;;;;;;;5.20;99.90;;;;;;5114921;28;19922;-64
2023/12/14 05:21:59;;;;;;;;;;;5.20;99.90;;;;;;5124036;27;19915;-64
2023/12/14 05:24:25;;;;;;;;;;;5.20;99.90;;;;;;5121719;27;20424;-64
2023/12/14 05:26:51;;;;;;;;;;;5.20;99.90;;;;;;5121496;27;20028;-64
2023/12/14 05:29:17;;;;;;;;;;;5.30;99.90;;;;;;5119028;28;20405;-64
2023/12/14 05:31:42;;;;;;;;;;;5.30;99.90;;;;;;5123797;27;20071;-64
2023/12/14 05:34:08;;;;;;;;;;;5.30;99.90;;;;;;5124913;27;20373;-63
2023/12/14 05:36:33;;;;;;;;;;;5.30;99.90;;;;;;5135431;27;20412;-64
2023/12/14 05:38:59;;;;;;;;;;;5.30;99.90;;;;;;5129112;27;19951;-64
2023/12/14 05:41:24;;;;;;;;;;;5.30;99.90;;;;;;5128163;27;20270;-63
2023/12/14 05:43:50;;;;;;;;;;;5.30;99.90;;;;;;5129727;27;19923;-63
2023/12/14 05:46:22;;;;;;;;;;;5.30;99.90;;;;;;5129008;27;19915;-63
2023/12/14 05:48:48;;;;;;;;;;;5.30;99.90;;;;;;5134866;27;19919;-63
2023/12/14 05:51:25;;;;;;;;;;;5.20;99.90;;;;;;5128823;27;19958;-63
2023/12/14 05:53:50;;;;;;;;;;;5.20;99.90;;;;;;5128546;27;20336;-63
2023/12/14 05:56:17;;;;;;;;;;;5.30;99.90;;;;;;5122241;27;19919;-63
2023/12/14 05:58:43;;;;;;;;;;;5.30;99.90;;;;;;5129292;27;19922;-64
2023/12/14 06:01:08;;;;;;;;;;;5.20;99.90;;;;;;5118162;27;19915;-63
2023/12/14 06:03:34;;;;;;;;;;;5.20;99.90;;;;;;5121588;27;19939;-63
2023/12/14 06:05:59;;;;;;;;;;;5.30;99.90;;;;;;5124913;27;19979;-64
2023/12/14 06:08:24;;;;;;;;;;;5.30;99.90;;;;;;5125166;27;19916;-63
2023/12/14 06:10:50;;;;;;;;;;;5.30;99.90;;;;;;5125599;27;19915;-63
2023/12/14 06:13:15;;;;;;;;;;;5.30;99.90;;;;;;5127503;27;19922;-63
2023/12/14 06:15:41;;;;;;;;;;;5.30;99.90;;;;;;5125978;27;20327;-63
2023/12/14 06:18:06;;;;;;;;;;;5.30;99.90;;;;;;5132387;27;19919;-63
2023/12/14 06:20:32;;;;;;;;;;;5.30;99.90;;;;;;5125075;27;20014;-63
2023/12/14 06:22:57;;;;;;;;;;;5.30;99.90;;;;;;5124306;27;19916;-64
2023/12/14 06:25:23;;;;;;;;;;;5.30;99.90;;;;;;5118193;27;20378;-63
2023/12/14 06:27:49;;;;;;;;;;;5.30;99.90;;;;;;5121957;27;19916;-63
2023/12/14 06:30:14;;;;;;;;;;;5.30;99.90;;;;;;5123235;28;19915;-63
2023/12/14 06:32:40;;;;;;;;;;;5.20;99.90;;;;;;5122762;27;19922;-63
2023/12/14 06:35:06;;;;;;;;;;;5.20;99.90;;;;;;5124014;28;19923;-63
2023/12/14 06:37:31;;;;;;;;;;;5.30;99.90;;;;;;5127224;28;19975;-63
2023/12/14 06:39:57;;;;;;;;;;;5.20;99.90;;;;;;5128626;28;19994;-63
2023/12/14 06:42:22;;;;;;;;;;;5.30;99.90;;;;;;5129371;28;19957;-63
2023/12/14 06:44:48;;;;;;;;;;;5.30;99.90;;;;;;5129800;27;19915;-64
2023/12/14 06:47:13;;;;;;;;;;;5.20;99.90;;;;;;5123597;28;19916;-63
2023/12/14 06:49:40;;;;;;;;;;;5.20;99.90;;;;;;5123851;28;20361;-63
2023/12/14 06:52:07;;;;;;;;;;;5.20;99.90;;;;;;5122593;27;19928;-63
2023/12/14 06:54:33;;;;;;;;;;;5.20;99.90;;;;;;5121589;28;19933;-63
2023/12/14 06:56:58;;;;;;;;;;;5.20;99.90;;;;;;5117637;28;19920;-63
2023/12/14 06:59:24;;;;;;;;;;;5.20;99.90;;;;;;5113408;28;19922;-63
2023/12/14 07:01:49;;;;;;;;;;;5.20;99.90;;;;;;5109278;28;20300;-63
2023/12/14 07:04:15;;;;;;;;;;;5.20;99.90;;;;;;5125214;28;20288;-64
2023/12/14 07:06:40;;;;;;;;;;;5.20;99.90;;;;;;5110832;28;19919;-64
2023/12/14 07:09:06;;;;;;;;;;;5.20;99.90;;;;;;5113156;28;20010;-65
2023/12/14 07:11:31;;;;;;;;;;;5.20;99.90;;;;;;5112218;28;19982;-64
2023/12/14 07:13:57;;;;;;;;;;;5.20;99.90;;;;;;5109670;28;20010;-63
2023/12/14 07:16:22;;;;;;;;;;;5.20;99.90;;;;;;5114847;28;19928;-63
2023/12/14 07:18:48;;;;;;;;;;;5.20;99.90;;;;;;5116354;28;19958;-63
2023/12/14 07:21:13;;;;;;;;;;;5.10;99.90;;;;;;5108860;28;20040;-63
2023/12/14 07:23:39;;;;;;;;;;;5.20;99.90;;;;;;5114519;28;19939;-63
2023/12/14 07:26:04;;;;;;;;;;;5.20;99.90;;;;;;5073441;27;1103871;-64
2023/12/14 07:28:30;;;;;;;;;;;5.10;99.90;;;;;;5113228;27;20892;-63
2023/12/14 07:30:55;;;;;;;;;;;5.20;99.90;;;;;;5111040;27;20329;-63
2023/12/14 07:33:21;;;;;;;;;;;5.20;99.90;;;;;;5115952;27;19996;-63
2023/12/14 07:35:47;;;;;;;;;;;5.20;99.90;;;;;;5112073;27;19920;-63
2023/12/14 07:38:12;;;;;;;;;;;5.20;99.90;;;;;;5116015;27;19919;-63
2023/12/14 07:40:42;;;;;;;;;;;5.10;99.90;;;;;;5116649;27;20010;-63
2023/12/14 07:43:08;;;;;;;;;;;5.10;99.90;;;;;;5116677;27;20399;-63
2023/12/14 07:45:34;;;;;;;;;;;5.10;99.90;;;;;;5118214;27;20015;-63
2023/12/14 07:47:59;;;;;;;;;;;5.10;99.90;;;;;;5121730;27;19922;-63
2023/12/14 07:50:25;;;;;;;;;;;5.10;99.90;;;;;;5115154;27;19922;-63
2023/12/14 07:52:50;;;;;;;;;;;5.10;99.90;;;;;;5118579;27;19919;-63
2023/12/14 07:55:17;;;;;;;;;;;5.10;99.90;;;;;;5127609;27;20013;-64
2023/12/14 07:57:42;;;;;;;;;;;5.10;99.90;;;;;;5113319;27;19919;-63
2023/12/14 08:00:08;;;;;;;;;;;5.10;99.90;;;;;;5104600;27;20380;-63
2023/12/14 08:02:34;;;;;;;;;;;5.20;99.90;;;;;;5107904;27;19915;-64
2023/12/14 08:05:00;;;;;;;;;;;5.10;99.90;;;;;;5108318;27;19915;-63
2023/12/14 08:07:28;;;;;;;;;;;5.10;99.90;;;;;;5115444;27;19916;-64
2023/12/14 08:09:54;;;;;;;;;;;5.20;99.90;;;;;;5102753;27;19928;-65
2023/12/14 08:12:21;;;;;;;;;;;5.20;99.90;;;;;;5105030;27;20404;-64
2023/12/14 08:14:47;;;;;;;;;;;5.20;99.90;;;;;;5103477;27;19920;-65
2023/12/14 08:17:12;;;;;;;;;;;5.20;99.90;;;;;;5114634;27;20295;-64
2023/12/14 08:19:38;;;;;;;;;;;5.20;99.90;;;;;;5107439;27;19923;-65
2023/12/14 08:22:03;;;;;;;;;;;5.20;99.90;;;;;;5116561;27;20002;-64
2023/12/14 08:24:29;;;;;;;;;;;5.20;99.90;;;;;;5110033;27;19923;-64
2023/12/14 08:26:55;;;;;;;;;;;5.20;99.90;;;;;;5101717;27;19969;-64
2023/12/14 08:29:20;;;;;;;;;;;5.20;99.90;;;;;;5107831;27;19954;-63
2023/12/14 08:31:46;;;;;;;;;;;5.20;99.90;;;;;;5101312;27;20453;-63
2023/12/14 08:34:11;;;;;;;;;;;5.30;99.90;;;;;;5105772;27;19920;-64
2023/12/14 08:36:37;;;;;;;;;;;5.20;99.90;;;;;;5100605;27;19923;-64
2023/12/14 08:39:02;;;;;;;;;;;5.30;99.90;;;;;;5092388;28;20421;-63
2023/12/14 08:41:28;;;;;;;;;;;5.30;99.90;;;;;;5102938;27;19956;-64
2023/12/14 08:43:55;;;;;;;;;;;5.20;99.90;;;;;;5098194;27;19920;-65
2023/12/14 08:46:21;;;;;;;;;;;5.30;99.90;;;;;;5110053;27;19915;-64
2023/12/14 08:48:47;;;;;;;;;;;5.30;99.90;;;;;;5108816;27;20386;-64
2023/12/14 08:51:12;;;;;;;;;;;5.30;99.90;;;;;;5102189;27;19931;-64
2023/12/14 08:53:38;;;;;;;;;;;5.30;99.90;;;;;;5101798;28;19916;-64
2023/12/14 08:56:04;;;;;;;;;;;5.30;99.90;;;;;;5099412;27;19930;-64
2023/12/14 08:58:29;;;;;;;;;;;5.30;99.90;;;;;;5105192;27;20318;-63
2023/12/14 09:00:55;;;;;;;;;;;5.30;99.90;;;;;;5103944;27;20358;-64
2023/12/14 09:03:20;;;;;;;;;;;5.30;99.90;;;;;;5105453;27;19915;-64
2023/12/14 09:05:46;;;;;;;;;;;5.30;99.90;;;;;;5116766;27;19915;-63
2023/12/14 09:08:11;;;;;;;;;;;5.30;99.90;;;;;;5098636;28;19924;-63
2023/12/14 09:10:40;;;;;;;;;;;5.30;99.90;;;;;;5108307;27;19927;-64
2023/12/14 09:13:06;;;;;;;;;;;5.30;99.90;;;;;;5101933;28;20473;-63
2023/12/14 09:15:32;;;;;;;;;;;5.30;99.90;;;;;;5104290;28;20006;-63
2023/12/14 09:17:57;;;;;;;;;;;5.30;99.90;;;;;;5100181;28;19923;-62
2023/12/14 09:20:23;;;;;;;;;;;5.40;99.90;;;;;;5093827;28;19938;-63
2023/12/14 09:22:49;;;;;;;;;;;5.30;99.90;;;;;;5096435;28;19922;-63
2023/12/14 09:25:15;;;;;;;;;;;5.40;99.90;;;;;;5102735;28;20061;-63
2023/12/14 09:27:41;;;;;;;;;;;5.30;99.90;;;;;;5102294;28;20014;-63
2023/12/14 09:30:07;;;;;;;;;;;5.40;99.90;;;;;;5106523;28;20014;-64
2023/12/14 09:32:33;;;;;;;;;;;5.40;99.90;;;;;;5110325;28;20403;-64
2023/12/14 09:34:59;;;;;;;;;;;5.40;99.90;;;;;;5112918;28;20018;-63
2023/12/14 09:37:24;;;;;;;;;;;5.40;99.90;;;;;;5117469;28;20347;-65
2023/12/14 09:39:50;;;;;;;;;;;5.40;99.90;;;;;;5106812;28;20481;-61
2023/12/14 09:42:17;;;;;;;;;;;5.40;99.90;;;;;;5118895;28;20352;-63
2023/12/14 09:44:43;;;;;;;;;;;5.40;99.90;;;;;;5112038;28;19916;-62
2023/12/14 09:47:08;;;;;;;;;;;5.40;99.90;;;;;;5117824;28;19915;-63
2023/12/14 09:49:35;;;;;;;;;;;5.40;99.90;;;;;;5117987;28;19950;-63
2023/12/14 09:52:01;;;;;;;;;;;5.40;99.90;;;;;;5110590;28;20400;-63
2023/12/14 09:54:27;;;;;;;;;;;5.40;99.90;;;;;;5114049;27;19924;-63
2023/12/14 09:56:52;;;;;;;;;;;5.40;99.90;;;;;;5125987;27;20343;-63
2023/12/14 09:59:18;;;;;;;;;;;5.50;99.90;;;;;;5097924;28;19916;-63
2023/12/14 10:01:44;;;;;;;;;;;5.50;99.90;;;;;;5102490;28;19921;-64
2023/12/14 10:04:11;;;;;;;;;;;5.50;99.90;;;;;;5096654;28;19916;-63
2023/12/14 10:06:40;;;;;;;;;;;5.50;99.90;;;;;;5095880;28;20335;-62
2023/12/14 10:09:27;;;;;;;;;;;5.50;99.90;;;;;;5097742;28;19915;-63
2023/12/14 10:12:01;;;;;;;;;;;5.50;99.90;;;;;;5099787;28;20327;-63
2023/12/14 10:14:29;;;;;;;;;;;5.50;99.90;;;;;;5100577;28;19956;-63
2023/12/14 10:16:55;;;;;;;;;;;5.50;99.90;;;;;;5104245;28;19931;-64
2023/12/14 10:19:21;;;;;;;;;;;5.50;99.90;;;;;;5106829;28;20370;-64
2023/12/14 10:21:47;;;;;;;;;;;5.60;99.90;;;;;;5102388;27;19926;-64
2023/12/14 10:24:13;;;;;;;;;;;5.60;99.90;;;;;;5101412;27;20517;-67
2023/12/14 10:26:38;;;;;;;;;;;5.60;99.90;;;;;;5108146;27;20146;-65
2023/12/14 10:29:07;;;;;;;;;;;5.50;99.90;;;;;;5112596;27;19916;-67
2023/12/14 10:31:37;;;;;;;;;;;5.50;99.90;;;;;;5111866;27;19930;-65
2023/12/14 10:34:03;;;;;;;;;;;5.60;99.90;;;;;;5102256;27;19916;-65
2023/12/14 10:36:29;;;;;;;;;;;5.50;99.90;;;;;;5107922;27;19928;-66
2023/12/14 10:38:57;;;;;;;;;;;5.60;99.90;;;;;;5113658;27;19916;-65
2023/12/14 10:41:23;;;;;;;;;;;5.60;99.90;;;;;;5101842;27;19938;-64
2023/12/14 10:43:50;;;;;;;;;;;5.60;99.90;;;;;;5109902;27;19924;-64
2023/12/14 10:46:16;;;;;;;;;;;5.60;99.90;;;;;;5115943;27;19923;-66
2023/12/14 10:48:43;;;;;;;;;;;5.60;99.90;;;;;;5110687;27;19916;-64
2023/12/14 10:51:10;;;;;;;;;;;5.60;99.90;;;;;;5111614;27;20289;-64
2023/12/14 10:53:35;;;;;;;;;;;5.60;99.90;;;;;;5118326;27;20497;-64
2023/12/14 10:56:06;;;;;;;;;;;5.60;99.90;;;;;;5106966;27;20018;-64
2023/12/14 10:58:46;;;;;;;;;;;5.70;99.90;;;;;;5104756;27;20010;-64
2023/12/14 11:01:13;;;;;;;;;;;5.70;99.90;;;;;;5106393;27;19915;-64
2023/12/14 11:03:40;;;;;;;;;;;5.70;99.90;;;;;;5109116;27;19916;-64
2023/12/14 11:06:19;;;;;;;;;;;5.70;99.90;;;;;;5105910;27;19968;-63
2023/12/14 11:08:45;;;;;;;;;;;5.70;99.90;;;;;;5105574;27;20014;-64
2023/12/14 11:11:13;;;;;;;;;;;5.70;99.90;;;;;;5105334;27;20006;-63
2023/12/14 11:13:40;;;;;;;;;;;5.70;99.90;;;;;;5106922;27;19938;-62
2023/12/14 11:16:05;;;;;;;;;;;5.70;99.90;;;;;;5112340;27;19923;-63
2023/12/14 11:18:31;;;;;;;;;;;5.70;99.90;;;;;;5111116;27;19917;-62
2023/12/14 11:21:00;;;;;;;;;;;5.70;99.90;;;;;;5106365;27;20305;-62
2023/12/14 11:23:26;;;;;;;;;;;5.70;99.90;;;;;;5109990;27;20298;-62
2023/12/14 11:25:52;;;;;;;;;;;5.70;99.90;;;;;;5108651;27;19923;-62
2023/12/14 11:28:19;;;;;;;;;;;5.70;99.90;;;;;;5110058;27;20958;-63
2023/12/14 11:30:44;;;;;;;;;;;5.70;99.90;;;;;;5111247;27;20313;-63
2023/12/14 11:33:13;;;;;;;;;;;5.70;99.90;;;;;;5108233;27;19923;-64
2023/12/14 11:35:39;;;;;;;;;;;5.70;99.90;;;;;;5102964;27;19920;-63
2023/12/14 11:38:11;;;;;;;;;;;5.70;99.90;;;;;;5107862;27;19997;-64
2023/12/14 11:40:37;;;;;;;;;;;5.70;99.90;;;;;;5107636;27;19968;-64
2023/12/14 11:43:09;;;;;;;;;;;5.70;99.90;;;;;;5107102;27;20397;-63
2023/12/14 11:45:39;;;;;;;;;;;5.80;99.90;;;;;;5110962;27;20002;-64
2023/12/14 11:48:05;;;;;;;;;;;5.80;99.90;;;;;;5110066;27;19920;-63
2023/12/14 11:50:33;;;;;;;;;;;5.80;99.90;;;;;;5111846;27;19919;-64
2023/12/14 11:53:03;;;;;;;;;;;5.80;99.90;;;;;;5118428;27;20282;-64
2023/12/14 11:55:30;;;;;;;;;;;5.80;99.90;;;;;;5112204;27;20007;-63
2023/12/14 11:57:56;;;;;;;;;;;5.80;99.90;;;;;;5113270;27;19927;-64
2023/12/14 12:00:31;;;;;;;;;;;5.80;99.90;;;;;;5112531;27;20311;-65
2023/12/14 12:03:09;;;;;;;;;;;5.80;99.90;;;;;;5118740;27;19919;-63
2023/12/14 12:05:36;;;;;;;;;;;5.80;99.90;;;;;;5111873;27;19915;-64
2023/12/14 12:08:02;;;;;;;;;;;5.80;99.90;;;;;;5114940;27;20677;-64
2023/12/14 12:10:28;;;;;;;;;;;5.80;99.90;;;;;;5112531;27;19966;-64
2023/12/14 12:13:04;;;;;;;;;;;5.80;99.90;;;;;;5113485;27;20382;-64
2023/12/14 12:15:31;;;;;;;;;;;5.80;99.90;;;;;;5113520;27;19951;-63
2023/12/14 12:17:57;;;;;;;;;;;5.80;99.90;;;;;;5112010;27;20020;-64
2023/12/14 12:20:23;;;;;;;;;;;5.80;99.90;;;;;;5107911;27;19924;-65
2023/12/14 12:22:48;;;;;;;;;;;5.70;99.90;;;;;;5114928;27;20293;-64
2023/12/14 12:25:14;;;;;;;;;;;5.70;99.90;;;;;;5112553;27;19923;-64
2023/12/14 12:27:40;;;;;;;;;;;5.70;99.90;;;;;;5115663;27;19923;-64
2023/12/14 12:30:06;;;;;;;;;;;5.70;99.90;;;;;;5112462;27;19916;-65
2023/12/14 12:32:31;;;;;;;;;;;5.70;99.90;;;;;;5111811;27;19915;-65
2023/12/14 12:34:57;;;;;;;;;;;5.70;99.90;;;;;;5112461;27;19920;-64
2023/12/14 12:37:22;;;;;;;;;;;5.70;99.90;;;;;;5113886;27;19954;-64
2023/12/14 12:39:48;;;;;;;;;;;5.70;99.90;;;;;;5112085;27;19916;-65
2023/12/14 12:42:13;;;;;;;;;;;5.70;99.90;;;;;;5110597;27;19915;-65
2023/12/14 12:44:39;;;;;;;;;;;5.70;99.90;;;;;;5109807;27;19919;-64
2023/12/14 12:47:05;;;;;;;;;;;5.70;99.90;;;;;;5109925;27;19969;-64
2023/12/14 12:49:30;;;;;;;;;;;5.70;99.90;;;;;;5107628;27;20048;-64
2023/12/14 12:51:56;;;;;;;;;;;5.70;99.90;;;;;;5106541;28;20366;-65
2023/12/14 12:54:21;;;;;;;;;;;5.70;99.90;;;;;;5114736;27;19916;-65
2023/12/14 12:56:48;;;;;;;;;;;5.70;99.90;;;;;;5110234;27;19924;-65
2023/12/14 12:59:14;;;;;;;;;;;5.70;99.90;;;;;;5109225;27;20336;-65
2023/12/14 13:01:40;;;;;;;;;;;5.70;99.90;;;;;;5109948;27;20006;-65
2023/12/14 13:04:17;;;;;;;;;;;5.70;99.90;;;;;;5091397;28;20454;-63
2023/12/14 13:06:42;;;;;;;;;;;5.70;99.90;;;;;;5106921;27;19915;-64
2023/12/14 13:09:08;;;;;;;;;;;5.70;99.90;;;;;;5109802;27;19920;-63
2023/12/14 13:11:33;;;;;;;;;;;5.70;99.90;;;;;;5107804;27;20542;-63
2023/12/14 13:14:01;;;;;;;;;;;5.70;99.90;;;;;;5108814;27;19924;-64
2023/12/14 13:16:26;;;;;;;;;;;5.70;99.90;;;;;;5108599;27;19923;-63
2023/12/14 13:18:52;;;;;;;;;;;5.70;99.90;;;;;;5103232;27;19938;-63
2023/12/14 13:21:17;;;;;;;;;;;5.80;99.90;;;;;;5108061;28;19920;-64
2023/12/14 13:23:43;;;;;;;;;;;5.80;99.90;;;;;;5108598;28;21570;-64
2023/12/14 13:26:09;;;;;;;;;;;5.80;99.90;;;;;;5104440;28;19923;-65
2023/12/14 13:28:35;;;;;;;;;;;5.80;99.90;;;;;;5104282;28;19920;-64
2023/12/14 13:31:00;;;;;;;;;;;5.80;99.90;;;;;;5107674;28;19920;-63
2023/12/14 13:33:26;;;;;;;;;;;5.80;99.90;;;;;;5110180;28;20018;-63
2023/12/14 13:35:51;;;;;;;;;;;5.80;99.90;;;;;;5106959;28;19915;-64
2023/12/14 13:38:17;;;;;;;;;;;5.80;99.90;;;;;;5110750;28;20155;-64
2023/12/14 13:40:43;;;;;;;;;;;5.80;99.90;;;;;;5110880;28;19915;-64
2023/12/14 13:43:10;;;;;;;;;;;5.80;99.90;;;;;;5108662;28;20376;-64
2023/12/14 13:45:36;;;;;;;;;;;5.80;99.90;;;;;;5110531;28;19919;-64
2023/12/14 13:48:02;;;;;;;;;;;5.80;99.90;;;;;;5108227;28;19915;-64
2023/12/14 13:50:28;;;;;;;;;;;5.90;99.90;;;;;;5102256;28;19915;-64
2023/12/14 13:52:53;;;;;;;;;;;5.90;99.90;;;;;;5105975;28;20389;-64
2023/12/14 13:55:19;;;;;;;;;;;5.90;99.90;;;;;;5108509;27;19916;-65
2023/12/14 13:57:45;;;;;;;;;;;5.90;99.90;;;;;;5108370;27;19927;-64
2023/12/14 14:00:11;;;;;;;;;;;5.90;99.90;;;;;;5112693;27;20357;-65
2023/12/14 14:02:37;;;;;;;;;;;5.90;99.90;;;;;;5113279;27;19998;-63
2023/12/14 14:05:03;;;;;;;;;;;5.90;99.90;;;;;;5115030;27;19927;-63
2023/12/14 14:07:28;;;;;;;;;;;5.90;99.90;;;;;;5116032;27;20013;-63
2023/12/14 14:09:54;;;;;;;;;;;5.90;99.90;;;;;;5115572;27;19923;-64
2023/12/14 14:12:19;;;;;;;;;;;5.90;99.90;;;;;;5117804;27;19916;-64
2023/12/14 14:14:45;;;;;;;;;;;5.90;99.90;;;;;;5117842;27;19928;-64
2023/12/14 14:17:10;;;;;;;;;;;5.90;99.90;;;;;;5117143;27;20072;-65
2023/12/14 14:19:36;;;;;;;;;;;5.80;99.90;;;;;;5120179;27;19919;-63
2023/12/14 14:22:01;;;;;;;;;;;5.80;99.90;;;;;;5119549;27;20293;-64
2023/12/14 14:24:27;;;;;;;;;;;5.80;99.90;;;;;;5119048;27;19923;-64